Time;durP1;ratioP1;P1;durP2;ratioP2;P2;SDS_P1;SDS_P2;PMS_P1;PMS_P2;Temp;Humidity;BMP_temperature;BMP_pressure;BME280_temperature;BME280_humidity;BME280_pressure;Samples;Min_cycle;Max_cycle;Signal;HPM_P1;HPM_P2
2022/05/30 00:00:30;;;;;;;10.70;9.60;;;;;;;6.94;100.00;95821.81;5064642;28;20775;-52
2022/05/30 00:02:59;;;;;;;11.70;9.65;;;;;;;6.89;100.00;95814.38;5059269;28;20084;-49
2022/05/30 00:05:29;;;;;;;9.88;8.65;;;;;;;6.77;100.00;95810.22;5066116;28;20079;-53
2022/05/30 00:07:57;;;;;;;8.68;7.88;;;;;;;6.75;100.00;95820.03;5061793;28;20071;-53
2022/05/30 00:10:26;;;;;;;11.52;10.32;;;;;;;6.75;100.00;95811.34;5059825;28;20141;-49
2022/05/30 00:12:56;;;;;;;11.68;9.57;;;;;;;6.75;100.00;95816.59;5060167;28;20057;-52
2022/05/30 00:15:25;;;;;;;;;;;;;;;6.54;100.00;95808.84;5067908;28;20079;-52
2022/05/30 00:17:57;;;;;;;10.55;9.02;;;;;;;6.49;100.00;95813.66;5061258;28;19989;-54
2022/05/30 00:20:26;;;;;;;12.45;9.27;;;;;;;6.52;100.00;95819.44;5060845;28;20063;-49
2022/05/30 00:22:54;;;;;;;10.40;9.18;;;;;;;6.58;100.00;95808.44;5061894;28;20557;-53
2022/05/30 00:25:22;;;;;;;10.10;8.75;;;;;;;6.68;100.00;95821.56;5065841;28;20801;-50
2022/05/30 00:27:51;;;;;;;10.63;9.52;;;;;;;6.68;100.00;95818.09;5065165;28;20768;-50
2022/05/30 00:30:20;;;;;;;10.60;9.05;;;;;;;6.63;100.00;95808.00;5061103;28;20682;-48
2022/05/30 00:32:49;;;;;;;7.93;7.13;;;;;;;6.51;100.00;95812.56;5061861;28;20080;-53
2022/05/30 00:35:17;;;;;;;7.32;6.63;;;;;;;6.19;100.00;95812.75;5060352;28;20078;-53
2022/05/30 00:37:45;;;;;;;8.18;7.38;;;;;;;6.22;100.00;95809.88;5062404;28;20072;-49
2022/05/30 00:40:14;;;;;;;8.50;7.60;;;;;;;6.09;100.00;95804.03;5061720;28;20064;-48
2022/05/30 00:42:42;;;;;;;7.72;6.93;;;;;;;6.05;100.00;95810.50;5061348;28;20071;-51
2022/05/30 00:45:10;;;;;;;6.65;6.05;;;;;;;5.90;100.00;95804.78;5063325;28;20084;-48
2022/05/30 00:47:41;;;;;;;6.60;6.00;;;;;;;5.98;100.00;95809.38;5063241;28;20068;-53
2022/05/30 00:50:10;;;;;;;;;;;;;;;6.02;100.00;95811.63;5066836;28;20068;-54
2022/05/30 00:52:41;;;;;;;7.28;6.57;;;;;;;6.03;100.00;95800.19;5063078;28;19951;-53
2022/05/30 00:55:10;;;;;;;10.63;7.50;;;;;;;6.04;100.00;95803.63;5065828;28;20061;-49
2022/05/30 00:57:40;;;;;;;9.00;8.10;;;;;;;6.06;100.00;95799.09;5061975;28;20056;-51
2022/05/30 01:00:12;;;;;;;7.93;7.07;;;;;;;6.15;100.00;95796.47;5060272;28;20086;-47
2022/05/30 01:02:42;;;;;;;6.13;5.63;;;;;;;6.16;100.00;95795.53;5062489;28;20045;-54
2022/05/30 01:08:02;;;;;;;6.70;6.10;;;;;;;6.04;100.00;95780.06;5059132;28;20071;-52
2022/05/30 01:10:31;;;;;;;9.85;8.85;;;;;;;6.03;100.00;95776.63;5065162;28;20099;-51
2022/05/30 01:12:59;;;;;;;11.05;9.23;;;;;;;6.10;100.00;95774.31;5056789;28;20044;-51
2022/05/30 01:15:30;;;;;;;9.50;8.50;;;;;;;5.90;100.00;95770.78;5064688;28;20127;-52
2022/05/30 01:18:03;;;;;;;11.13;8.20;;;;;;;5.89;100.00;95767.31;5057744;28;20091;-50
2022/05/30 01:20:38;;;;;;;8.20;7.40;;;;;;;6.07;100.00;95769.34;5065418;28;20065;-53
2022/05/30 01:23:22;;;;;;;8.27;7.47;;;;;;;6.05;100.00;95771.25;5063608;28;20076;-49
2022/05/30 01:26:33;;;;;;;10.70;7.28;;;;;;;6.02;100.00;95771.50;5061181;28;20064;-50
2022/05/30 01:29:04;;;;;;;;;;;;;;;6.17;100.00;95768.41;5064682;28;20064;-49
2022/05/30 01:31:32;;;;;;;13.85;6.95;;;;;;;6.07;100.00;95771.94;5060955;28;19955;-48
2022/05/30 01:34:01;;;;;;;18.10;7.20;;;;;;;6.07;100.00;95770.16;5063638;28;20091;-52
2022/05/30 01:36:31;;;;;;;44.60;8.40;;;;;;;5.89;100.00;95763.88;5061773;28;20092;-50
2022/05/30 01:39:00;;;;;;;42.47;7.90;;;;;;;5.68;100.00;95769.19;5063220;28;20459;-48
2022/05/30 01:41:28;;;;;;;42.95;7.93;;;;;;;5.73;100.00;95756.53;5059778;28;20067;-50
2022/05/30 01:43:56;;;;;;;15.20;7.60;;;;;;;5.93;100.00;95754.84;5063824;28;20068;-48
2022/05/30 01:46:26;;;;;;;26.77;8.00;;;;;;;5.73;100.00;95756.53;5060983;28;20545;-50
2022/05/30 01:48:55;;;;;;;16.17;6.35;;;;;;;5.90;100.00;95757.69;5061962;28;20057;-53
2022/05/30 01:51:23;;;;;;;9.30;5.35;;;;;;;5.94;100.00;95751.25;5063036;28;20099;-53
2022/05/30 01:53:52;;;;;;;9.50;5.15;;;;;;;5.88;100.00;95755.22;5064322;28;20565;-51
2022/05/30 01:56:22;;;;;;;11.88;5.20;;;;;;;5.82;100.00;95754.91;5063909;28;20083;-49
2022/05/30 01:58:50;;;;;;;17.07;5.27;;;;;;;5.59;100.00;95754.28;5058252;28;20075;-50
2022/05/30 02:01:20;;;;;;;22.52;5.88;;;;;;;5.54;100.00;95748.59;5061654;28;20537;-51
2022/05/30 02:03:51;;;;;;;17.95;5.85;;;;;;;5.57;100.00;95745.72;5062093;28;20069;-51
2022/05/30 02:06:20;;;;;;;12.57;5.90;;;;;;;5.59;100.00;95743.81;5060501;28;20454;-52
2022/05/30 02:08:49;;;;;;;9.38;6.22;;;;;;;5.55;100.00;95740.63;5063057;28;20072;-51
2022/05/30 02:11:19;;;;;;;12.85;5.55;;;;;;;5.43;100.00;95745.09;5061971;28;20061;-52
2022/05/30 02:13:47;;;;;;;11.45;6.82;;;;;;;5.28;100.00;95750.81;5064028;28;20146;-48
2022/05/30 02:19:05;;;;;;;11.85;7.22;;;;;;;5.40;100.00;95744.53;5059644;28;20537;-53
2022/05/30 02:21:34;;;;;;;35.72;7.55;;;;;;;5.16;100.00;95752.66;5059525;28;20509;-51
2022/05/30 02:24:04;;;;;;;17.58;7.35;;;;;;;5.28;100.00;95751.66;5066021;28;20087;-52
2022/05/30 02:26:32;;;;;;;19.73;6.70;;;;;;;5.47;100.00;95743.06;5063330;28;20075;-46
2022/05/30 02:29:00;;;;;;;47.85;7.80;;;;;;;5.54;100.00;95743.34;5063951;28;20075;-53
2022/05/30 02:31:29;;;;;;;37.03;8.27;;;;;;;5.55;100.00;95737.19;5060082;28;20067;-52
2022/05/30 02:36:45;;;;;;;10.48;7.07;;;;;;;5.41;100.00;95730.53;5066681;28;20064;-50
2022/05/30 02:39:15;;;;;;;12.83;6.83;;;;;;;5.29;100.00;95724.53;5067367;28;20452;-48
2022/05/30 02:41:45;;;;;;;11.13;6.80;;;;;;;5.15;100.00;95730.09;5065484;28;20992;-51
2022/05/30 02:44:14;;;;;;;8.50;6.70;;;;;;;5.13;100.00;95737.28;5066491;28;20532;-50
2022/05/30 02:46:43;;;;;;;13.68;7.25;;;;;;;5.11;100.00;95737.38;5064017;28;20458;-52
2022/05/30 02:49:11;;;;;;;21.17;7.38;;;;;;;4.91;100.00;95733.81;5065129;28;20068;-54
2022/05/30 02:51:39;;;;;;;11.35;8.05;;;;;;;5.05;100.00;95729.22;5066479;28;20577;-54
2022/05/30 02:54:09;;;;;;;12.93;8.02;;;;;;;5.00;100.00;95735.66;5066656;28;20086;-52
2022/05/30 02:56:37;;;;;;;19.23;8.17;;;;;;;5.14;100.00;95738.91;5066088;28;20059;-54
2022/05/30 02:59:06;;;;;;;15.30;8.55;;;;;;;4.99;100.00;95741.88;5064486;28;20079;-55
2022/05/30 03:01:35;;;;;;;12.43;8.30;;;;;;;5.19;100.00;95739.34;5064990;28;20064;-49
2022/05/30 03:04:05;;;;;;;22.35;8.55;;;;;;;5.35;100.00;95744.94;5063148;28;20064;-51
2022/05/30 03:06:33;;;;;;;16.40;8.20;;;;;;;5.48;100.00;95742.13;5061575;28;20071;-47
2022/05/30 03:09:03;;;;;;;14.45;8.75;;;;;;;5.56;100.00;95746.69;5067791;28;20181;-52
2022/05/30 03:11:33;;;;;;;17.13;8.68;;;;;;;5.54;100.00;95746.81;5062391;28;20462;-52
2022/05/30 03:14:02;;;;;;;15.98;9.23;;;;;;;5.61;100.00;95747.97;5063869;28;20557;-54
2022/05/30 03:16:30;;;;;;;20.67;8.88;;;;;;;5.74;100.00;95750.31;5063224;28;20065;-53
2022/05/30 03:18:58;;;;;;;18.17;9.25;;;;;;;5.86;100.00;95751.88;5062949;28;20087;-53
2022/05/30 03:21:27;;;;;;;75.20;9.82;;;;;;;5.77;100.00;95746.63;5056686;28;20076;-52
2022/05/30 03:23:55;;;;;;;57.42;9.85;;;;;;;5.90;100.00;95757.69;5065453;28;20242;-55
2022/05/30 03:26:23;;;;;;;71.38;9.73;;;;;;;6.04;100.00;95759.13;5066662;28;20060;-48
2022/05/30 03:28:53;;;;;;;59.08;10.63;;;;;;;6.00;100.00;95761.19;5064021;28;20063;-55
2022/05/30 03:31:22;;;;;;;74.88;10.80;;;;;;;5.98;100.00;95762.28;5062290;28;20533;-53
2022/05/30 03:33:50;;;;;;;50.88;9.90;;;;;;;5.93;100.00;95768.75;5061300;28;20780;-51
2022/05/30 03:36:22;;;;;;;38.20;8.80;;;;;;;5.88;100.00;95767.44;5068352;28;20087;-51
2022/05/30 03:38:51;;;;;;;34.53;8.25;;;;;;;5.81;100.00;95769.75;5059596;28;20088;-53
2022/05/30 03:41:19;;;;;;;16.20;7.95;;;;;;;5.55;100.00;95772.00;5063253;28;20065;-52
2022/05/30 03:43:47;;;;;;;8.93;7.75;;;;;;;5.34;100.00;95777.28;5068983;28;20068;-50
2022/05/30 03:46:17;;;;;;;24.02;8.10;;;;;;;5.32;100.00;95775.75;5064482;28;20067;-50
2022/05/30 03:48:46;;;;;;;;;;;;;;;5.46;100.00;95780.63;5066365;28;20545;-52
2022/05/30 03:51:14;;;;;;;10.93;7.85;;;;;;;5.36;100.00;95780.56;5062135;28;20102;-51
2022/05/30 03:53:43;;;;;;;21.65;8.43;;;;;;;5.48;100.00;95781.34;5060557;28;20476;-51
2022/05/30 03:56:11;;;;;;;25.27;9.20;;;;;;;5.52;100.00;95780.13;5066049;28;20068;-47
2022/05/30 03:58:40;;;;;;;21.95;8.77;;;;;;;6.07;100.00;95775.41;5064535;28;20057;-47
2022/05/30 04:01:09;;;;;;;14.18;8.18;;;;;;;6.38;100.00;95770.09;5064478;28;20083;-50
2022/05/30 04:03:40;;;;;;;17.70;8.32;;;;;;;7.06;100.00;95773.53;5063184;28;20064;-52
2022/05/30 04:06:08;;;;;;;8.68;7.88;;;;;;;7.81;100.00;95770.97;5057003;28;20084;-51
2022/05/30 04:08:37;;;;;;;8.45;7.75;;;;;;;8.87;100.00;95753.75;5054894;28;20075;-50
2022/05/30 04:11:05;;;;;;;8.55;7.85;;;;;;;9.78;100.00;95745.50;5054879;28;20071;-47
2022/05/30 04:13:33;;;;;;;7.38;6.82;;;;;;;10.52;100.00;95732.59;5053327;28;20253;-48
2022/05/30 04:16:09;;;;;;;13.82;6.78;;;;;;;10.65;100.00;95732.97;5050354;28;20103;-48
2022/05/30 04:18:39;;;;;;;8.18;6.78;;;;;;;11.52;100.00;95730.63;5067375;28;20072;-49
2022/05/30 04:21:08;;;;;;;6.30;5.72;;;;;;;11.94;100.00;95735.66;5053388;28;20095;-47
2022/05/30 04:23:37;;;;;;;6.78;6.28;;;;;;;12.54;100.00;95731.56;5053684;28;20064;-47
2022/05/30 04:26:05;;;;;;;7.00;6.40;;;;;;;13.18;100.00;95718.88;5055921;28;20452;-49
2022/05/30 04:28:34;;;;;;;6.95;6.45;;;;;;;13.85;100.00;95718.03;5059663;28;20076;-49
2022/05/30 04:31:06;;;;;;;6.68;6.18;;;;;;;13.79;100.00;95726.72;5065711;28;20420;-51
2022/05/30 04:33:34;;;;;;;6.43;5.93;;;;;;;14.57;100.00;95727.13;5059072;28;20107;-55
2022/05/30 04:36:07;;;;;;;6.10;5.60;;;;;;;15.05;100.00;95727.41;5058793;28;20076;-49
2022/05/30 04:38:35;;;;;;;6.00;5.60;;;;;;;15.46;100.00;95719.56;5062753;28;20076;-54
2022/05/30 04:41:04;;;;;;;5.43;5.00;;;;;;;14.96;100.00;95729.34;5055016;28;20561;-49
2022/05/30 04:43:32;;;;;;;5.20;4.80;;;;;;;14.68;100.00;95738.06;5055834;28;20068;-48
2022/05/30 04:46:05;;;;;;;4.78;4.47;;;;;;;15.22;100.00;95733.28;5053145;28;20162;-50
2022/05/30 04:48:34;;;;;;;4.85;4.50;;;;;;;15.07;100.00;95739.47;5061343;28;20086;-54
2022/05/30 04:51:04;;;;;;;5.00;4.60;;;;;;;16.05;100.00;95735.09;5055607;28;20080;-52
2022/05/30 04:53:33;;;;;;;3.70;3.40;;;;;;;14.78;100.00;95737.75;5057728;28;20060;-51
2022/05/30 04:56:02;;;;;;;3.45;3.15;;;;;;;14.05;100.00;95747.47;5061323;28;20105;-52
2022/05/30 04:58:32;;;;;;;2.90;2.70;;;;;;;13.30;100.00;95749.22;5068260;28;20083;-49
2022/05/30 05:01:03;;;;;;;2.80;2.60;;;;;;;12.89;100.00;95758.44;5068395;28;20086;-51
2022/05/30 05:03:33;;;;;;;3.20;2.88;;;;;;;11.79;100.00;95753.16;5054996;28;20068;-50
2022/05/30 05:06:02;;;;;;;3.30;3.00;;;;;;;11.83;100.00;95757.94;5062883;28;20091;-54
2022/05/30 05:08:39;;;;;;;4.35;3.30;;;;;;;11.39;100.00;95754.91;5055787;28;20091;-53
2022/05/30 05:11:17;;;;;;;3.28;2.97;;;;;;;10.98;100.00;95759.34;5055762;28;20087;-48
2022/05/30 05:13:49;;;;;;;3.63;3.33;;;;;;;10.81;100.00;95763.81;5054472;28;20060;-52
2022/05/30 05:16:19;;;;;;;6.22;4.70;;;;;;;12.25;100.00;95758.63;5059136;28;20079;-50
2022/05/30 05:18:48;;;;;;;4.45;4.10;;;;;;;12.03;100.00;95763.69;5062544;28;20071;-49
2022/05/30 05:21:18;;;;;;;4.43;4.07;;;;;;;12.83;100.00;95747.59;5067839;28;20084;-48
2022/05/30 05:23:48;;;;;;;3.40;3.10;;;;;;;12.66;100.00;95761.88;5061692;28;20076;-53
2022/05/30 05:26:16;;;;;;;3.00;2.80;;;;;;;12.25;100.00;95759.47;5049971;28;20627;-55
2022/05/30 05:28:46;;;;;;;3.72;3.42;;;;;;;12.69;100.00;95768.66;5065418;28;20633;-53
2022/05/30 05:31:16;;;;;;;4.25;3.95;;;;;;;14.06;100.00;95759.72;5059199;28;20060;-54
2022/05/30 05:33:51;;;;;;;3.35;2.78;;;;;;;13.30;100.00;95756.34;5060242;28;20087;-53
2022/05/30 05:36:20;;;;;;;3.58;3.28;;;;;;;12.86;100.00;95767.56;5051674;28;20080;-53
2022/05/30 05:38:51;;;;;;;3.72;3.42;;;;;;;11.82;100.00;95771.31;5066414;28;20086;-52
2022/05/30 05:41:20;;;;;;;3.67;3.47;;;;;;;12.64;100.00;95768.38;5054857;28;20072;-49
2022/05/30 05:43:49;;;;;;;4.38;3.63;;;;;;;13.30;100.00;95761.63;5049691;28;20056;-52
2022/05/30 05:46:19;;;;;;;4.95;3.78;;;;;;;13.88;100.00;95754.78;5058114;28;20071;-50
2022/05/30 05:48:48;;;;;;;3.80;3.50;;;;;;;13.29;100.00;95765.28;5067903;28;20530;-47
2022/05/30 05:51:18;;;;;;;3.90;3.50;;;;;;;12.60;100.00;95762.59;5060837;28;20099;-48
2022/05/30 05:53:47;;;;;;;2.50;2.30;;;;;;;13.15;100.00;95756.28;5066322;28;20068;-48
2022/05/30 05:56:19;;;;;;;2.63;2.30;;;;;;;14.25;100.00;95756.50;5049796;28;20061;-51
2022/05/30 05:58:49;;;;;;;2.78;2.40;;;;;;;14.25;100.00;95759.16;5066806;28;20083;-51
2022/05/30 06:01:19;;;;;;;5.10;2.60;;;;;;;13.97;100.00;95751.06;5064307;28;20072;-50
2022/05/30 06:03:49;;;;;;;3.03;2.70;;;;;;;13.72;100.00;95747.81;5062114;28;20484;-48
2022/05/30 06:06:17;;;;;;;4.10;3.05;;;;;;;13.44;100.00;95755.56;5057842;28;20482;-52
2022/05/30 06:08:46;;;;;;;4.53;3.33;;;;;;;12.89;100.00;95750.50;5062148;28;20080;-47
2022/05/30 06:11:15;;;;;;;3.85;3.50;;;;;;;12.77;100.00;95756.22;5065067;28;20087;-50
2022/05/30 06:13:47;;;;;;;5.20;3.50;;;;;;;12.84;100.00;95756.34;5060534;28;20447;-53
2022/05/30 06:16:17;;;;;;;4.07;3.72;;;;;;;12.91;100.00;95751.16;5051801;28;20088;-52
2022/05/30 06:18:46;;;;;;;4.35;3.95;;;;;;;12.92;100.00;95752.81;5062513;28;20067;-47
2022/05/30 06:21:15;;;;;;;5.40;3.88;;;;;;;12.52;100.00;95752.88;5065225;28;20080;-50
2022/05/30 06:23:45;;;;;;;4.20;3.85;;;;;;;12.47;100.00;95757.88;5061106;28;20072;-52
2022/05/30 06:26:14;;;;;;;4.45;4.05;;;;;;;12.69;100.00;95758.06;5066009;28;20071;-46
2022/05/30 06:28:46;;;;;;;4.80;3.90;;;;;;;12.51;100.00;95756.53;5064892;28;20087;-49
2022/05/30 06:31:17;;;;;;;4.28;3.88;;;;;;;12.78;100.00;95759.69;5066463;28;20071;-50
2022/05/30 06:33:45;;;;;;;3.97;3.67;;;;;;;12.67;100.00;95752.97;5070221;28;20075;-49
2022/05/30 06:36:16;;;;;;;4.70;4.03;;;;;;;12.63;100.00;95761.41;5065400;28;20107;-48
2022/05/30 06:38:46;;;;;;;4.28;3.90;;;;;;;12.79;100.00;95756.03;5056003;28;21537;-46
2022/05/30 06:41:16;;;;;;;4.03;3.72;;;;;;;12.93;100.00;95760.56;5056608;28;20064;-52
2022/05/30 06:43:52;;;;;;;4.32;3.90;;;;;;;13.23;100.00;95756.19;5065746;28;20086;-51
2022/05/30 06:46:20;;;;;;;4.20;3.58;;;;;;;13.17;100.00;95748.16;5069299;28;20064;-54
2022/05/30 06:48:51;;;;;;;4.05;3.65;;;;;;;12.99;100.00;95749.28;5063557;28;20071;-52
2022/05/30 06:51:19;;;;;;;4.28;3.88;;;;;;;13.12;100.00;95745.22;5061723;28;20087;-54
2022/05/30 06:53:48;;;;;;;5.47;4.00;;;;;;;12.99;100.00;95751.09;5057727;28;20074;-50
2022/05/30 06:56:18;;;;;;;4.65;4.25;;;;;;;13.12;100.00;95755.81;5066338;28;20083;-56
2022/05/30 06:58:50;;;;;;;5.07;4.57;;;;;;;13.32;100.00;95762.28;5065733;28;20166;-52
2022/05/30 07:01:21;;;;;;;5.20;4.68;;;;;;;13.66;100.00;95764.47;5060225;28;20429;-51
2022/05/30 07:03:50;;;;;;;5.47;4.97;;;;;;;13.47;100.00;95759.66;5054713;28;20064;-53
2022/05/30 07:06:20;;;;;;;4.88;4.38;;;;;;;13.32;100.00;95757.00;5063719;28;20084;-48
2022/05/30 07:08:49;;;;;;;;;;;;;;;13.63;100.00;95767.47;5058119;28;20076;-46
2022/05/30 07:11:19;;;;;;;5.55;4.40;;;;;;;13.30;100.00;95765.09;5063442;28;19960;-50
2022/05/30 07:13:47;;;;;;;5.47;4.97;;;;;;;13.50;100.00;95760.13;5053493;28;20074;-52
2022/05/30 07:16:17;;;;;;;4.80;4.40;;;;;;;13.96;100.00;95761.81;5059090;28;20076;-53
2022/05/30 07:18:47;;;;;;;6.68;5.10;;;;;;;14.18;100.00;95760.09;5059639;28;20075;-48
2022/05/30 07:21:15;;;;;;;5.82;5.10;;;;;;;13.89;100.00;95760.91;5064253;28;20147;-51
2022/05/30 07:23:44;;;;;;;5.75;4.95;;;;;;;13.97;100.00;95764.31;5069813;28;20084;-50
2022/05/30 07:26:16;;;;;;;6.75;5.40;;;;;;;13.98;100.00;95765.94;5064045;28;20079;-51
2022/05/30 07:28:46;;;;;;;6.30;5.00;;;;;;;14.33;100.00;95763.53;5063628;28;20068;-49
2022/05/30 07:31:17;;;;;;;7.43;5.45;;;;;;;13.95;100.00;95770.78;5058309;28;20064;-50
2022/05/30 07:33:48;;;;;;;6.95;5.57;;;;;;;14.16;100.00;95767.41;5059878;28;20064;-51
2022/05/30 07:36:18;;;;;;;6.85;4.93;;;;;;;13.95;100.00;95770.78;5050850;28;20088;-50
2022/05/30 07:38:47;;;;;;;6.47;5.15;;;;;;;14.08;100.00;95767.50;5063294;28;20076;-50
2022/05/30 07:41:15;;;;;;;4.75;4.22;;;;;;;13.92;100.00;95771.97;5061503;28;20070;-52
2022/05/30 07:43:45;;;;;;;6.80;5.05;;;;;;;14.13;100.00;95760.63;5059835;28;20598;-51
2022/05/30 07:46:15;;;;;;;5.32;4.43;;;;;;;14.41;100.00;95766.06;5069191;28;20526;-53
2022/05/30 07:48:44;;;;;;;5.22;4.72;;;;;;;14.56;100.00;95774.06;5061969;28;20055;-49
2022/05/30 07:51:15;;;;;;;5.05;4.60;;;;;;;14.06;100.00;95774.81;5066132;28;20084;-52
2022/05/30 07:53:44;;;;;;;;;;;;;;;14.46;100.00;95768.19;5064139;28;20492;-53
2022/05/30 07:56:14;;;;;;;5.38;4.57;;;;;;;14.79;100.00;95765.94;5060267;28;19956;-54
2022/05/30 07:58:43;;;;;;;7.60;4.65;;;;;;;15.19;100.00;95766.34;5064054;28;20075;-52
2022/05/30 08:01:13;;;;;;;5.50;4.90;;;;;;;15.17;100.00;95769.19;5057497;28;20072;-48
2022/05/30 08:03:42;;;;;;;5.50;4.93;;;;;;;15.55;100.00;95763.56;5059113;28;20071;-52
2022/05/30 08:06:13;;;;;;;4.97;4.53;;;;;;;15.28;100.00;95770.53;5056997;28;20080;-48
2022/05/30 08:08:44;;;;;;;6.57;5.40;;;;;;;14.85;100.00;95767.84;5059446;28;20441;-51
2022/05/30 08:11:15;;;;;;;5.38;4.88;;;;;;;14.61;100.00;95770.84;5059383;28;20515;-47
2022/05/30 08:13:45;;;;;;;6.05;5.20;;;;;;;14.66;100.00;95771.13;5062806;28;20080;-50
2022/05/30 08:16:16;;;;;;;5.38;4.80;;;;;;;15.20;100.00;95773.28;5051969;28;20068;-50
2022/05/30 08:19:05;;;;;;;5.17;4.13;;;;;;;15.15;100.00;95767.75;5061236;28;20503;-53
2022/05/30 08:21:38;;;;;;;5.10;4.60;;;;;;;15.27;100.00;95779.47;5061767;28;20470;-51
2022/05/30 08:24:08;;;;;;;5.10;4.47;;;;;;;15.33;100.00;95777.91;5062385;28;20546;-51
2022/05/30 08:26:36;;;;;;;;;;;;;;;15.70;100.00;95779.47;5062329;28;20059;-53
2022/05/30 08:29:05;;;;;;;4.80;4.40;;;;;;;15.99;100.00;95773.09;5060127;28;19960;-51
2022/05/30 08:31:33;;;;;;;4.43;3.97;;;;;;;16.13;100.00;95774.81;5055201;28;20080;-52
2022/05/30 08:34:02;;;;;;;4.35;3.72;;;;;;;16.58;100.00;95777.91;5052615;28;20068;-52
2022/05/30 08:36:30;;;;;;;6.93;4.20;;;;;;;16.09;100.00;95783.41;5058809;28;20103;-52
2022/05/30 08:41:48;;;;;;;4.00;3.60;;;;;;;17.01;100.00;95771.53;5062664;28;21454;-52
2022/05/30 08:44:18;;;;;;;4.18;3.58;;;;;;;16.92;100.00;95783.38;5062034;28;20079;-52
2022/05/30 08:46:55;;;;;;;3.80;3.50;;;;;;;17.25;100.00;95784.28;5052893;28;20170;-48
2022/05/30 08:49:27;;;;;;;4.22;3.83;;;;;;;17.43;100.00;95780.22;5062914;28;20479;-46
2022/05/30 08:52:26;;;;;;;3.72;3.20;;;;;;;17.29;100.00;95785.50;5061121;28;20072;-50
2022/05/30 08:55:00;;;;;;;5.13;3.50;;;;;;;17.33;100.00;95775.28;5059627;28;20469;-48
2022/05/30 08:57:41;;;;;;;4.15;3.50;;;;;;;16.88;100.00;95784.81;5055714;28;20084;-53
2022/05/30 09:00:16;;;;;;;5.28;3.65;;;;;;;17.17;100.00;95792.47;5061174;28;20086;-53
2022/05/30 09:02:49;;;;;;;4.13;3.40;;;;;;;17.67;100.00;95782.25;5056162;28;20558;-46
2022/05/30 09:05:20;;;;;;;3.90;3.50;;;;;;;17.13;100.00;95791.22;5061126;28;20068;-57
2022/05/30 09:08:11;;;;;;;3.95;3.17;;;;;;;17.07;100.00;95792.88;5055821;28;20061;-53
2022/05/30 09:10:42;;;;;;;3.72;3.30;;;;;;;17.55;100.00;95783.91;5067050;28;20075;-54
2022/05/30 09:13:18;;;;;;;3.92;3.50;;;;;;;16.48;100.00;95795.28;5063020;28;20064;-55
2022/05/30 09:15:54;;;;;;;4.35;3.28;;;;;;;17.22;100.00;95791.88;5060639;28;20044;-51
2022/05/30 09:18:26;;;;;;;4.28;3.88;;;;;;;17.48;100.00;95793.72;5062129;28;20088;-51
2022/05/30 09:20:54;;;;;;;4.25;3.85;;;;;;;18.20;100.00;95789.41;5059471;28;20084;-54
2022/05/30 09:23:25;;;;;;;3.92;3.30;;;;;;;18.43;100.00;95781.75;5048343;28;20076;-48
2022/05/30 09:25:56;;;;;;;4.32;3.80;;;;;;;17.90;100.00;95791.72;5055040;28;20064;-53
2022/05/30 09:28:29;;;;;;;4.47;3.70;;;;;;;18.31;100.00;95786.13;5055755;28;20079;-55
2022/05/30 09:31:03;;;;;;;5.13;3.15;;;;;;;18.90;93.32;95786.94;5057232;28;20072;-52
2022/05/30 09:33:34;;;;;;;3.42;2.60;;;;;;;18.00;93.97;95784.94;5059236;28;20095;-55
2022/05/30 09:36:18;;;;;;;3.28;2.50;;;;;;;17.72;81.93;95787.81;5060467;28;20131;-54
2022/05/30 09:38:48;;;;;;;3.88;2.67;;;;;;;18.48;90.05;95783.81;5057169;28;20197;-50
2022/05/30 09:41:22;;;;;;;2.63;2.42;;;;;;;17.60;93.39;95784.09;5058098;28;20061;-52
2022/05/30 09:43:55;;;;;;;3.72;2.90;;;;;;;18.33;80.99;95772.53;5066751;28;20087;-52
2022/05/30 09:46:31;;;;;;;3.65;2.90;;;;;;;18.33;92.74;95772.53;5067034;28;20064;-48
2022/05/30 09:49:09;;;;;;;3.70;2.88;;;;;;;18.07;84.72;95776.13;5058581;28;20076;-55
2022/05/30 09:51:41;;;;;;;3.28;2.70;;;;;;;18.57;100.00;95769.16;5063432;28;20063;-50
2022/05/30 09:54:11;;;;;;;4.05;2.40;;;;;;;18.64;92.09;95777.97;5064953;28;20084;-51
2022/05/30 09:56:42;;;;;;;4.55;2.78;;;;;;;19.00;86.08;95765.94;5063174;28;20067;-52
2022/05/30 09:59:30;;;;;;;3.38;3.08;;;;;;;18.33;93.85;95776.03;5070915;28;20083;-50
2022/05/30 10:01:59;;;;;;;3.20;2.67;;;;;;;17.80;92.22;95778.81;5058871;28;20069;-54
2022/05/30 10:04:35;;;;;;;3.65;3.17;;;;;;;17.77;89.74;95776.56;5065875;28;20073;-49
2022/05/30 10:07:07;;;;;;;7.35;3.30;;;;;;;17.55;85.93;95778.59;5052275;28;20072;-52
2022/05/30 10:09:41;;;;;;;3.00;2.70;;;;;;;18.50;87.48;95776.38;5067137;28;20064;-51
2022/05/30 10:12:10;;;;;;;4.18;2.83;;;;;;;18.32;91.87;95773.59;5052063;28;20068;-53
2022/05/30 10:14:40;;;;;;;2.88;2.50;;;;;;;18.31;100.00;95774.63;5061583;28;20431;-53
2022/05/30 10:17:14;;;;;;;4.72;2.70;;;;;;;17.88;100.00;95781.25;5063932;28;20068;-53
2022/05/30 10:19:48;;;;;;;3.63;2.40;;;;;;;18.39;100.00;95780.53;5059688;28;20065;-51
2022/05/30 10:28:40;;;;;;;4.05;2.80;;;;;;;18.22;88.86;95780.16;5058984;28;20084;-54
2022/05/30 10:31:21;;;;;;;2.70;2.50;;;;;;;18.98;78.96;95776.00;5055332;28;20057;-53
2022/05/30 10:34:13;;;;;;;2.47;2.28;;;;;;;19.14;69.62;95780.84;5064894;28;20061;-49
2022/05/30 10:36:56;;;;;;;2.55;2.25;;;;;;;19.71;67.32;95780.88;5067390;28;20060;-51
2022/05/30 10:39:37;;;;;;;3.45;2.90;;;;;;;19.70;63.80;95771.22;5071002;28;20463;-51
2022/05/30 10:42:10;;;;;;;2.78;2.38;;;;;;;19.70;63.02;95773.91;5062495;28;20085;-50
2022/05/30 10:44:41;;;;;;;2.95;2.40;;;;;;;19.66;64.27;95773.50;5057468;28;20069;-53
2022/05/30 10:47:15;;;;;;;3.42;2.25;;;;;;;20.58;58.57;95776.34;5051768;28;20060;-52
2022/05/30 10:49:47;;;;;;;3.13;2.30;;;;;;;19.59;58.44;95769.22;5067888;28;20072;-49
2022/05/30 10:52:20;;;;;;;2.50;2.13;;;;;;;19.44;70.50;95767.69;5064797;28;20069;-51
2022/05/30 10:54:53;;;;;;;3.47;2.40;;;;;;;19.26;67.21;95772.94;5067830;28;20106;-53
2022/05/30 10:57:25;;;;;;;4.15;2.10;;;;;;;18.96;66.60;95770.06;5064167;28;20076;-52
2022/05/30 10:59:57;;;;;;;2.70;2.10;;;;;;;19.02;72.75;95771.84;5061722;28;20090;-52
2022/05/30 11:02:31;;;;;;;2.13;1.92;;;;;;;18.96;64.28;95776.22;5059581;28;20530;-55
2022/05/30 11:05:03;;;;;;;2.25;2.00;;;;;;;19.04;69.57;95772.47;5061692;28;20064;-48
2022/05/30 11:07:41;;;;;;;2.38;2.17;;;;;;;18.96;64.19;95772.75;5062714;28;20075;-56
2022/05/30 11:10:18;;;;;;;2.78;2.00;;;;;;;19.05;67.88;95773.28;5066540;28;20072;-51
2022/05/30 11:12:50;;;;;;;2.92;2.10;;;;;;;19.28;68.62;95775.44;5057755;28;20068;-54
2022/05/30 11:15:26;;;;;;;2.28;2.08;;;;;;;18.68;63.31;95773.84;5057424;28;20688;-51
2022/05/30 11:18:09;;;;;;;2.70;2.20;;;;;;;19.43;60.51;95773.25;5057946;28;20122;-54
2022/05/30 11:20:41;;;;;;;2.67;2.03;;;;;;;19.04;58.81;95771.66;5061474;28;20078;-48
2022/05/30 11:23:10;;;;;;;3.13;2.40;;;;;;;18.62;61.70;95784.59;5057153;28;20056;-50
2022/05/30 11:25:54;;;;;;;2.28;2.08;;;;;;;18.83;65.56;95783.50;5058216;28;20065;-48
2022/05/30 11:28:34;;;;;;;2.40;2.20;;;;;;;18.29;71.49;95785.50;5063568;28;20076;-53
2022/05/30 11:31:07;;;;;;;3.22;2.47;;;;;;;18.18;68.93;95783.47;5062030;28;20061;-54
2022/05/30 11:34:02;;;;;;;2.33;2.00;;;;;;;18.67;71.72;95784.75;5057449;28;20079;-48
2022/05/30 11:36:46;;;;;;;2.58;2.20;;;;;;;18.92;59.36;95774.19;5063303;28;20084;-53
2022/05/30 11:39:29;;;;;;;2.63;1.90;;;;;;;20.16;55.53;95791.38;5065497;28;20083;-51
2022/05/30 11:42:06;;;;;;;2.60;2.33;;;;;;;19.75;50.05;95791.97;5065145;28;20473;-50
2022/05/30 11:44:49;;;;;;;2.85;2.10;;;;;;;19.24;51.09;95793.75;5052152;28;20069;-54
2022/05/30 11:47:30;;;;;;;2.50;1.90;;;;;;;20.44;45.22;95793.59;5056783;28;20065;-53
2022/05/30 11:50:25;;;;;;;3.30;2.17;;;;;;;19.85;46.08;95789.59;5056600;28;20075;-49
2022/05/30 11:53:19;;;;;;;2.85;1.90;;;;;;;19.32;52.21;95790.81;5058110;28;20064;-48
2022/05/30 11:55:51;;;;;;;2.60;1.90;;;;;;;19.69;56.39;95777.63;5066342;28;20056;-49
2022/05/30 11:58:26;;;;;;;3.35;1.85;;;;;;;20.54;52.16;95780.53;5061066;28;20094;-48
2022/05/30 12:00:56;;;;;;;3.25;2.10;;;;;;;20.55;47.38;95775.97;5060609;28;20519;-49
2022/05/30 12:04:04;;;;;;;2.33;2.10;;;;;;;20.05;56.43;95779.53;5068134;28;20079;-53
2022/05/30 12:06:44;;;;;;;2.40;2.13;;;;;;;20.88;53.85;95780.91;5057670;28;20452;-49